Terminal Aerodrome Forecast
Issued by NWS

Home | Current Version | Previous Version | Text Only | Print | Product List | Glossary On
Versions: 1 2 3 4 5 6 7 8 9 10 11 12 13
248
FTUS41 KPBZ 241120
TAFBVI
TAF
KBVI 241120Z 2412/2512 20007KT P6SM -RA OVC050
     FM241400 20010G20KT P6SM BKN100
     FM250900 21006KT P6SM OVC025=

USA.gov is the U.S. government's official web portal to all federal, state and local government web resources and services.